Time;durP1;ratioP1;P1;durP2;ratioP2;P2;SDS_P1;SDS_P2;PMS_P1;PMS_P2;Temp;Humidity;BMP_temperature;BMP_pressure;BME280_temperature;BME280_humidity;BME280_pressure;Samples;Min_cycle;Max_cycle;Signal;HPM_P1;HPM_P2
2021/07/29 00:00:06;;;;;;;1.52;1.00;;;;;;;;;;5046228;28;20581;-70
2021/07/29 00:02:33;;;;;;;1.25;1.15;;;;;;;;;;5030933;28;20502;-71
2021/07/29 00:04:59;;;;;;;1.00;0.90;;;;;;;;;;5026290;28;20121;-71
2021/07/29 00:07:25;;;;;;;1.35;1.23;;;;;;;;;;5025763;28;20033;-71
2021/07/29 00:09:51;;;;;;;1.08;0.90;;;;;;;;;;5026103;28;20044;-71
2021/07/29 00:12:17;;;;;;;1.33;0.90;;;;;;;;;;5026058;28;20084;-68
2021/07/29 00:14:50;;;;;;;1.10;1.00;;;;;;;;;;5041836;28;20097;-69
2021/07/29 00:20:00;;;;;;;;;;;;;;;;;;5046952;28;20066;-68
2021/07/29 00:22:26;;;;;;;1.30;1.08;;;;;;;;;;5028537;28;19916;-67
2021/07/29 00:24:52;;;;;;;1.10;1.00;;;;;;;;;;5026127;28;20838;-68
2021/07/29 00:27:18;;;;;;;1.20;0.88;;;;;;;;;;5024413;28;20703;-67
2021/07/29 00:29:44;;;;;;;1.13;1.00;;;;;;;;;;5024651;28;20484;-67
2021/07/29 00:32:10;;;;;;;1.20;1.10;;;;;;;;;;5027081;28;20789;-68
2021/07/29 00:34:36;;;;;;;1.20;1.10;;;;;;;;;;5029475;28;20088;-67
2021/07/29 00:37:02;;;;;;;1.30;1.10;;;;;;;;;;5030268;28;20100;-67
2021/07/29 00:39:28;;;;;;;0.73;0.73;;;;;;;;;;5043261;28;20036;-68
2021/07/29 00:41:54;;;;;;;0.85;0.80;;;;;;;;;;5049280;28;20705;-67
2021/07/29 00:44:20;;;;;;;1.42;1.20;;;;;;;;;;5049064;28;20037;-68
2021/07/29 00:46:47;;;;;;;0.90;0.90;;;;;;;;;;5049229;28;20518;-68
2021/07/29 00:49:13;;;;;;;0.88;0.88;;;;;;;;;;5049327;28;20079;-68
2021/07/29 00:51:39;;;;;;;1.75;1.10;;;;;;;;;;5048852;28;20471;-68
2021/07/29 00:54:05;;;;;;;1.20;1.10;;;;;;;;;;5049433;28;20025;-69
2021/07/29 00:56:32;;;;;;;1.80;1.10;;;;;;;;;;5048617;28;20021;-68
2021/07/29 00:58:58;;;;;;;0.90;0.90;;;;;;;;;;5049322;28;20479;-68
2021/07/29 01:01:24;;;;;;;1.05;1.05;;;;;;;;;;5048815;28;20029;-68
2021/07/29 01:03:51;;;;;;;1.13;1.08;;;;;;;;;;5034595;28;20136;-68
2021/07/29 01:06:17;;;;;;;1.00;0.90;;;;;;;;;;5027873;28;20044;-68
2021/07/29 01:08:59;;;;;;;1.08;0.98;;;;;;;;;;5028656;28;20025;-69
2021/07/29 01:11:26;;;;;;;0.98;0.90;;;;;;;;;;5028195;28;20045;-68
2021/07/29 01:13:52;;;;;;;1.00;0.88;;;;;;;;;;5028725;28;20029;-68
2021/07/29 01:16:18;;;;;;;1.42;1.27;;;;;;;;;;5028434;28;20690;-68
2021/07/29 01:18:44;;;;;;;1.25;1.00;;;;;;;;;;5027972;28;20389;-68
2021/07/29 01:21:10;;;;;;;1.35;1.10;;;;;;;;;;5028463;28;20034;-68
2021/07/29 01:23:37;;;;;;;1.20;1.10;;;;;;;;;;5027211;28;20111;-68
2021/07/29 01:26:03;;;;;;;1.45;1.20;;;;;;;;;;5028522;28;20491;-67
2021/07/29 01:28:29;;;;;;;1.50;1.40;;;;;;;;;;5027248;28;20764;-67
2021/07/29 01:30:55;;;;;;;1.20;0.95;;;;;;;;;;5028263;28;20021;-67
2021/07/29 01:33:21;;;;;;;1.75;1.02;;;;;;;;;;5027787;28;20593;-66
2021/07/29 01:35:48;;;;;;;1.15;1.00;;;;;;;;;;5028207;28;20026;-67
2021/07/29 01:38:14;;;;;;;1.50;1.20;;;;;;;;;;5028193;28;20551;-67
2021/07/29 01:40:40;;;;;;;1.20;1.00;;;;;;;;;;5026237;28;20859;-67
2021/07/29 01:43:06;;;;;;;1.30;1.20;;;;;;;;;;5028047;28;20495;-67
2021/07/29 01:45:32;;;;;;;1.45;1.00;;;;;;;;;;5028187;28;20545;-67
2021/07/29 01:47:58;;;;;;;1.42;1.33;;;;;;;;;;5028331;28;20083;-68
2021/07/29 01:50:24;;;;;;;1.30;1.20;;;;;;;;;;5047700;28;20060;-68
2021/07/29 01:52:50;;;;;;;1.17;1.08;;;;;;;;;;5045019;28;20029;-68
2021/07/29 01:55:16;;;;;;;0.93;0.93;;;;;;;;;;5047783;28;20622;-68
2021/07/29 01:57:44;;;;;;;1.60;1.50;;;;;;;;;;5046470;28;20074;-67
2021/07/29 02:00:10;;;;;;;1.13;1.02;;;;;;;;;;5047369;28;20059;-67
2021/07/29 02:02:36;;;;;;;0.80;0.80;;;;;;;;;;5027333;28;20033;-67
2021/07/29 02:05:03;;;;;;;1.42;1.33;;;;;;;;;;5028214;28;20029;-68
2021/07/29 02:07:29;;;;;;;1.35;1.10;;;;;;;;;;5042829;28;20514;-67
2021/07/29 02:09:55;;;;;;;1.00;0.90;;;;;;;;;;5047486;28;20025;-67
2021/07/29 02:12:21;;;;;;;1.50;1.20;;;;;;;;;;5047177;28;20037;-68
2021/07/29 02:14:47;;;;;;;0.90;0.90;;;;;;;;;;5039262;28;20492;-68
2021/07/29 02:17:13;;;;;;;0.95;0.95;;;;;;;;;;5027150;28;20574;-68
2021/07/29 02:19:39;;;;;;;1.65;1.27;;;;;;;;;;5027222;28;20026;-68
2021/07/29 02:22:05;;;;;;;1.05;1.00;;;;;;;;;;5026560;28;20151;-68
2021/07/29 02:24:31;;;;;;;1.17;1.00;;;;;;;;;;5027446;28;20450;-67
2021/07/29 02:26:57;;;;;;;1.92;1.20;;;;;;;;;;5040795;28;20040;-67
2021/07/29 02:29:23;;;;;;;1.60;1.27;;;;;;;;;;5026870;28;20033;-67
2021/07/29 02:31:49;;;;;;;1.35;1.13;;;;;;;;;;5027225;28;20402;-67
2021/07/29 02:34:15;;;;;;;1.25;1.00;;;;;;;;;;5027245;28;20450;-67
2021/07/29 02:36:41;;;;;;;1.10;1.00;;;;;;;;;;5026375;28;20060;-67
2021/07/29 02:39:07;;;;;;;1.23;1.05;;;;;;;;;;5025672;28;20508;-67
2021/07/29 02:41:35;;;;;;;1.10;1.00;;;;;;;;;;5026120;28;20518;-67
2021/07/29 02:44:01;;;;;;;1.00;0.95;;;;;;;;;;5027684;28;20014;-68
2021/07/29 02:46:29;;;;;;;0.90;0.90;;;;;;;;;;5040635;28;20025;-68
2021/07/29 02:48:55;;;;;;;1.05;1.02;;;;;;;;;;5046960;28;20419;-68
2021/07/29 02:51:21;;;;;;;1.38;1.27;;;;;;;;;;5045100;28;20048;-68
2021/07/29 02:53:47;;;;;;;1.38;1.27;;;;;;;;;;5046608;28;20376;-68
2021/07/29 02:56:13;;;;;;;1.75;1.40;;;;;;;;;;5033538;28;20026;-68
2021/07/29 02:58:39;;;;;;;1.45;1.35;;;;;;;;;;5026414;28;20519;-68
2021/07/29 03:01:05;;;;;;;1.40;1.30;;;;;;;;;;5030851;28;20022;-68
2021/07/29 03:03:31;;;;;;;1.77;1.35;;;;;;;;;;5046804;28;20399;-68
2021/07/29 03:05:57;;;;;;;1.42;1.33;;;;;;;;;;5045175;28;20048;-68
2021/07/29 03:08:23;;;;;;;1.30;1.20;;;;;;;;;;5045703;28;20064;-67
2021/07/29 03:10:49;;;;;;;1.77;1.50;;;;;;;;;;5046462;28;20029;-67
2021/07/29 03:13:16;;;;;;;1.65;1.35;;;;;;;;;;5046053;28;20029;-67
2021/07/29 03:15:42;;;;;;;1.80;1.40;;;;;;;;;;5045253;28;20086;-67
2021/07/29 03:18:08;;;;;;;1.58;1.48;;;;;;;;;;5046558;28;20479;-68
2021/07/29 03:20:34;;;;;;;1.75;1.35;;;;;;;;;;5046205;28;20438;-67
2021/07/29 03:23:00;;;;;;;1.70;1.52;;;;;;;;;;5045913;28;20463;-67
2021/07/29 03:25:26;;;;;;;1.42;1.30;;;;;;;;;;5041695;28;20063;-67
2021/07/29 03:27:52;;;;;;;1.30;1.17;;;;;;;;;;5046259;28;20055;-67
2021/07/29 03:30:18;;;;;;;1.50;1.40;;;;;;;;;;5046036;28;20033;-67
2021/07/29 03:32:44;;;;;;;1.33;1.20;;;;;;;;;;5028460;28;20518;-67
2021/07/29 03:35:10;;;;;;;1.20;1.10;;;;;;;;;;5026668;28;20033;-67
2021/07/29 03:37:36;;;;;;;1.90;1.40;;;;;;;;;;5026200;28;20484;-68
2021/07/29 03:40:06;;;;;;;1.45;1.35;;;;;;;;;;5026558;28;20033;-67
2021/07/29 03:42:32;;;;;;;1.30;1.10;;;;;;;;;;5025989;28;20049;-67
2021/07/29 03:45:00;;;;;;;1.23;1.10;;;;;;;;;;5026062;28;20037;-67
2021/07/29 03:47:27;;;;;;;1.55;1.45;;;;;;;;;;5026050;28;20025;-68
2021/07/29 03:49:53;;;;;;;1.73;1.40;;;;;;;;;;5026163;28;20041;-68
2021/07/29 03:52:19;;;;;;;1.45;1.33;;;;;;;;;;5025765;28;20029;-68
2021/07/29 03:54:45;;;;;;;1.48;1.38;;;;;;;;;;5026449;28;20456;-68
2021/07/29 03:57:11;;;;;;;1.10;1.00;;;;;;;;;;5043681;28;20073;-68
2021/07/29 03:59:38;;;;;;;1.23;1.05;;;;;;;;;;5045660;28;21308;-68
2021/07/29 04:02:10;;;;;;;2.40;1.73;;;;;;;;;;5046084;28;20027;-68
2021/07/29 04:04:40;;;;;;;1.55;1.45;;;;;;;;;;5045502;28;20037;-68
2021/07/29 04:07:07;;;;;;;1.42;1.30;;;;;;;;;;5045150;28;20040;-68
2021/07/29 04:09:33;;;;;;;1.48;1.38;;;;;;;;;;5029628;28;20030;-67
2021/07/29 04:11:59;;;;;;;1.60;1.40;;;;;;;;;;5029633;28;20037;-67
2021/07/29 04:14:25;;;;;;;1.17;1.08;;;;;;;;;;5029074;28;20562;-67
2021/07/29 04:16:55;;;;;;;1.48;1.27;;;;;;;;;;5028615;28;20017;-67
2021/07/29 04:19:21;;;;;;;2.53;1.63;;;;;;;;;;5027711;28;20041;-67
2021/07/29 04:21:48;;;;;;;1.65;1.50;;;;;;;;;;5029302;28;20029;-68
2021/07/29 04:24:14;;;;;;;1.98;1.58;;;;;;;;;;5029889;28;20025;-67
2021/07/29 04:26:40;;;;;;;1.70;1.50;;;;;;;;;;5028960;28;20040;-67
2021/07/29 04:29:07;;;;;;;1.38;1.27;;;;;;;;;;5028083;28;20057;-67
2021/07/29 04:31:33;;;;;;;1.65;1.52;;;;;;;;;;5027690;28;20100;-67
2021/07/29 04:33:59;;;;;;;1.88;1.52;;;;;;;;;;5027889;28;20575;-68
2021/07/29 04:36:25;;;;;;;1.30;1.20;;;;;;;;;;5027229;28;20097;-68
2021/07/29 04:38:51;;;;;;;1.30;1.20;;;;;;;;;;5027649;28;20021;-68
2021/07/29 04:41:17;;;;;;;1.60;1.50;;;;;;;;;;5027671;28;20296;-67
2021/07/29 04:43:43;;;;;;;1.35;1.25;;;;;;;;;;5028417;28;20231;-68
2021/07/29 04:46:09;;;;;;;1.63;1.40;;;;;;;;;;5027726;28;20033;-68
2021/07/29 04:48:35;;;;;;;1.75;1.30;;;;;;;;;;5028128;28;20438;-68
2021/07/29 04:51:04;;;;;;;1.38;1.10;;;;;;;;;;5047810;28;20041;-69
2021/07/29 04:53:31;;;;;;;2.50;1.35;;;;;;;;;;5046858;28;20025;-69
2021/07/29 04:55:58;;;;;;;1.30;1.20;;;;;;;;;;5040894;28;20099;-69
2021/07/29 04:58:24;;;;;;;1.98;1.45;;;;;;;;;;5027220;28;20075;-69
2021/07/29 05:00:51;;;;;;;1.30;1.20;;;;;;;;;;5038553;28;20099;-69
2021/07/29 05:03:17;;;;;;;2.00;1.13;;;;;;;;;;5048047;28;20029;-69
2021/07/29 05:05:43;;;;;;;1.80;1.45;;;;;;;;;;5045681;28;20032;-69
2021/07/29 05:08:09;;;;;;;1.95;1.20;;;;;;;;;;5046758;28;20491;-69
2021/07/29 05:10:35;;;;;;;2.08;1.55;;;;;;;;;;5046907;28;20033;-69
2021/07/29 05:13:01;;;;;;;1.38;1.15;;;;;;;;;;5030255;28;20037;-68
2021/07/29 05:15:27;;;;;;;1.60;1.25;;;;;;;;;;5024610;28;20045;-68
2021/07/29 05:17:56;;;;;;;1.77;1.30;;;;;;;;;;5026830;28;20094;-67
2021/07/29 05:20:23;;;;;;;1.20;1.00;;;;;;;;;;5028155;28;20091;-68
2021/07/29 05:22:50;;;;;;;1.83;1.25;;;;;;;;;;5026320;28;20545;-68
2021/07/29 05:25:22;;;;;;;1.20;1.10;;;;;;;;;;5027794;28;20037;-67
2021/07/29 05:27:51;;;;;;;2.15;1.30;;;;;;;;;;5027154;28;20029;-70
2021/07/29 05:30:18;;;;;;;1.27;1.17;;;;;;;;;;5026511;28;20558;-69
2021/07/29 05:32:44;;;;;;;1.60;1.20;;;;;;;;;;5027992;28;20036;-69
2021/07/29 05:35:10;;;;;;;1.20;1.02;;;;;;;;;;5026913;28;20665;-70
2021/07/29 05:37:37;;;;;;;1.40;1.20;;;;;;;;;;5026451;28;20034;-70
2021/07/29 05:40:04;;;;;;;1.60;1.20;;;;;;;;;;5026537;28;20068;-70
2021/07/29 05:42:32;;;;;;;1.38;1.27;;;;;;;;;;5026290;28;20053;-71
2021/07/29 05:44:58;;;;;;;1.20;1.08;;;;;;;;;;5026353;28;20087;-71
2021/07/29 05:47:24;;;;;;;1.95;1.48;;;;;;;;;;5043349;28;20030;-71
2021/07/29 05:49:50;;;;;;;1.20;1.10;;;;;;;;;;5037786;28;20033;-70
2021/07/29 05:52:17;;;;;;;2.47;1.30;;;;;;;;;;5026557;28;20128;-71
2021/07/29 05:54:43;;;;;;;1.25;1.15;;;;;;;;;;5026744;28;20056;-71
2021/07/29 05:57:10;;;;;;;1.30;1.20;;;;;;;;;;5026177;28;20318;-71
2021/07/29 05:59:36;;;;;;;1.35;1.20;;;;;;;;;;5026034;28;20067;-71
2021/07/29 06:02:02;;;;;;;1.15;1.05;;;;;;;;;;5025735;28;20065;-71
2021/07/29 06:04:29;;;;;;;1.50;1.40;;;;;;;;;;5026017;28;20018;-72
2021/07/29 06:06:55;;;;;;;2.75;1.10;;;;;;;;;;5025882;28;20029;-67
2021/07/29 06:09:21;;;;;;;1.40;1.02;;;;;;;;;;5033795;28;20091;-67
2021/07/29 06:11:48;;;;;;;1.20;1.05;;;;;;;;;;5044419;28;20033;-67
2021/07/29 06:14:14;;;;;;;1.63;1.52;;;;;;;;;;5029802;28;20101;-70
2021/07/29 06:16:40;;;;;;;1.45;1.20;;;;;;;;;;5038055;28;20124;-67
2021/07/29 06:19:09;;;;;;;1.23;1.13;;;;;;;;;;5028200;28;20040;-66
2021/07/29 06:21:35;;;;;;;1.20;1.10;;;;;;;;;;5027003;28;20033;-66
2021/07/29 06:24:02;;;;;;;1.20;1.10;;;;;;;;;;5048814;28;20029;-66
2021/07/29 06:26:28;;;;;;;1.50;1.30;;;;;;;;;;5046771;28;20119;-70
2021/07/29 06:28:54;;;;;;;1.58;1.20;;;;;;;;;;5038902;28;20025;-66
2021/07/29 06:31:21;;;;;;;2.55;1.20;;;;;;;;;;5036446;28;20060;-67
2021/07/29 06:33:47;;;;;;;1.15;0.95;;;;;;;;;;5033968;28;20044;-67
2021/07/29 06:36:13;;;;;;;0.90;0.90;;;;;;;;;;5027625;28;20025;-66
2021/07/29 06:38:39;;;;;;;3.22;1.00;;;;;;;;;;5026729;28;20503;-67
2021/07/29 06:41:06;;;;;;;0.93;0.77;;;;;;;;;;5036561;28;20029;-68
2021/07/29 06:43:32;;;;;;;1.20;1.10;;;;;;;;;;5038793;28;20411;-68
2021/07/29 06:46:04;;;;;;;1.10;1.00;;;;;;;;;;5037666;28;20061;-68
2021/07/29 06:48:30;;;;;;;1.05;0.95;;;;;;;;;;5027711;28;20025;-68
2021/07/29 06:50:56;;;;;;;1.15;1.00;;;;;;;;;;5026575;28;20038;-67
2021/07/29 06:53:22;;;;;;;1.25;1.00;;;;;;;;;;5027193;28;20025;-68
2021/07/29 06:55:49;;;;;;;1.92;0.98;;;;;;;;;;5026908;28;20503;-67
2021/07/29 06:58:15;;;;;;;1.02;1.00;;;;;;;;;;5026628;28;20499;-67
2021/07/29 07:00:41;;;;;;;1.10;1.00;;;;;;;;;;5025921;28;20033;-68
2021/07/29 07:03:07;;;;;;;1.27;1.17;;;;;;;;;;5035287;28;20037;-68
2021/07/29 07:05:33;;;;;;;1.15;1.00;;;;;;;;;;5045516;28;20056;-69
2021/07/29 07:07:59;;;;;;;2.25;0.90;;;;;;;;;;5036844;28;20476;-69
2021/07/29 07:10:25;;;;;;;0.73;0.73;;;;;;;;;;5034427;28;20511;-69
2021/07/29 07:12:51;;;;;;;0.80;0.80;;;;;;;;;;5026210;28;20033;-68
2021/07/29 07:15:17;;;;;;;1.05;0.90;;;;;;;;;;5030222;28;20095;-68
2021/07/29 07:17:43;;;;;;;1.08;0.98;;;;;;;;;;5034370;28;20115;-68
2021/07/29 07:20:10;;;;;;;1.10;0.90;;;;;;;;;;5044210;28;20060;-68
2021/07/29 07:22:36;;;;;;;0.73;0.73;;;;;;;;;;5026033;28;20032;-68
2021/07/29 07:25:02;;;;;;;1.60;0.93;;;;;;;;;;5026693;28;20037;-67
2021/07/29 07:27:29;;;;;;;0.90;0.90;;;;;;;;;;5025549;28;20505;-68
2021/07/29 07:29:55;;;;;;;0.98;0.90;;;;;;;;;;5027655;28;20109;-66
2021/07/29 07:32:21;;;;;;;1.00;0.90;;;;;;;;;;5027645;28;20507;-65
2021/07/29 07:34:47;;;;;;;0.77;0.77;;;;;;;;;;5028778;28;20033;-67
2021/07/29 07:37:13;;;;;;;0.80;0.80;;;;;;;;;;5030625;28;20022;-66
2021/07/29 07:39:39;;;;;;;1.15;1.02;;;;;;;;;;5028951;28;20029;-69
2021/07/29 07:42:05;;;;;;;0.90;0.82;;;;;;;;;;5028811;28;20100;-65
2021/07/29 07:44:31;;;;;;;1.13;0.80;;;;;;;;;;5038817;28;20033;-64
2021/07/29 07:46:57;;;;;;;0.68;0.68;;;;;;;;;;5048635;28;20036;-67
2021/07/29 07:49:24;;;;;;;0.73;0.70;;;;;;;;;;5029371;28;20110;-67
2021/07/29 07:51:50;;;;;;;0.70;0.70;;;;;;;;;;5029211;28;20492;-68
2021/07/29 07:54:16;;;;;;;1.63;1.02;;;;;;;;;;5033000;28;20048;-66
2021/07/29 07:56:43;;;;;;;1.80;1.00;;;;;;;;;;5031714;28;20104;-64
2021/07/29 07:59:09;;;;;;;1.00;0.90;;;;;;;;;;5030535;28;20026;-68
2021/07/29 08:01:38;;;;;;;1.40;0.93;;;;;;;;;;5047331;28;20174;-64
2021/07/29 08:04:04;;;;;;;0.90;0.90;;;;;;;;;;5050060;28;20044;-66
2021/07/29 08:06:30;;;;;;;0.98;0.80;;;;;;;;;;5035484;28;20033;-66
2021/07/29 08:08:56;;;;;;;0.90;0.90;;;;;;;;;;5049280;28;20036;-64
2021/07/29 08:11:22;;;;;;;1.05;0.90;;;;;;;;;;5047622;28;20029;-66
2021/07/29 08:13:48;;;;;;;1.20;1.10;;;;;;;;;;5041371;28;20033;-63
2021/07/29 08:16:14;;;;;;;1.10;0.90;;;;;;;;;;5034049;28;20332;-64
2021/07/29 08:18:40;;;;;;;0.70;0.70;;;;;;;;;;5027622;28;20496;-63
2021/07/29 08:21:09;;;;;;;1.30;1.08;;;;;;;;;;5028565;28;20499;-62
2021/07/29 08:23:35;;;;;;;0.90;0.80;;;;;;;;;;5026861;28;20034;-63
2021/07/29 08:26:01;;;;;;;1.02;0.90;;;;;;;;;;5027424;28;20033;-64
2021/07/29 08:28:27;;;;;;;0.77;0.65;;;;;;;;;;5030944;28;20494;-63
2021/07/29 08:30:53;;;;;;;1.58;1.10;;;;;;;;;;5027798;28;20108;-64
2021/07/29 08:33:19;;;;;;;1.08;0.95;;;;;;;;;;5046033;28;20025;-64
2021/07/29 08:35:46;;;;;;;0.80;0.80;;;;;;;;;;5048397;28;20067;-64
2021/07/29 08:38:12;;;;;;;1.00;0.90;;;;;;;;;;5037243;28;20396;-67
2021/07/29 08:40:38;;;;;;;0.90;0.90;;;;;;;;;;5065944;28;20020;-67
2021/07/29 08:43:07;;;;;;;1.00;0.90;;;;;;;;;;5061809;28;20071;-67
2021/07/29 08:45:37;;;;;;;0.93;0.80;;;;;;;;;;5034832;28;20022;-71
2021/07/29 08:48:04;;;;;;;1.20;1.10;;;;;;;;;;5028898;28;20030;-71
2021/07/29 08:50:30;;;;;;;1.00;0.90;;;;;;;;;;5046022;28;20070;-71
2021/07/29 08:52:56;;;;;;;1.08;0.98;;;;;;;;;;5047065;28;20445;-71
2021/07/29 08:55:22;;;;;;;1.00;0.80;;;;;;;;;;5032506;28;20395;-70
2021/07/29 08:57:48;;;;;;;1.10;1.05;;;;;;;;;;5053251;28;20142;-71
2021/07/29 09:00:14;;;;;;;0.77;0.70;;;;;;;;;;5041803;28;20374;-70
2021/07/29 09:02:41;;;;;;;0.75;0.73;;;;;;;;;;5062529;28;20554;-70
2021/07/29 09:05:21;;;;;;;0.73;0.73;;;;;;;;;;5068784;28;20036;-71
2021/07/29 09:08:04;;;;;;;0.90;0.80;;;;;;;;;;5029514;28;20087;-72
2021/07/29 09:10:30;;;;;;;1.20;0.90;;;;;;;;;;5051353;28;20032;-72
2021/07/29 09:13:26;;;;;;;0.70;0.70;;;;;;;;;;5046541;28;20040;-72
2021/07/29 09:16:11;;;;;;;0.70;0.70;;;;;;;;;;5047872;28;20045;-71
2021/07/29 09:18:37;;;;;;;0.75;0.73;;;;;;;;;;5048067;28;20032;-71
2021/07/29 09:21:16;;;;;;;0.82;0.75;;;;;;;;;;5038463;28;20029;-71
2021/07/29 09:23:43;;;;;;;0.80;0.80;;;;;;;;;;5027251;28;20037;-71
2021/07/29 09:26:09;;;;;;;1.23;1.10;;;;;;;;;;5028941;28;20104;-72
2021/07/29 09:28:39;;;;;;;0.80;0.80;;;;;;;;;;5035424;28;20037;-71
2021/07/29 09:31:15;;;;;;;0.75;0.75;;;;;;;;;;5036681;28;20045;-70
2021/07/29 09:33:57;;;;;;;0.75;0.70;;;;;;;;;;5041345;28;20246;-73
2021/07/29 09:36:23;;;;;;;0.85;0.85;;;;;;;;;;5040992;28;20032;-72
2021/07/29 09:38:49;;;;;;;1.20;1.10;;;;;;;;;;5026659;28;20454;-71
2021/07/29 09:41:24;;;;;;;0.80;0.80;;;;;;;;;;5040639;28;20107;-72
2021/07/29 09:43:51;;;;;;;0.90;0.90;;;;;;;;;;5047856;28;20025;-71
2021/07/29 09:46:20;;;;;;;1.08;0.95;;;;;;;;;;5034992;28;20423;-71
2021/07/29 09:48:46;;;;;;;1.17;1.08;;;;;;;;;;5028644;28;20492;-71
2021/07/29 09:51:12;;;;;;;0.90;0.77;;;;;;;;;;5029089;28;20452;-70
2021/07/29 09:53:41;;;;;;;0.73;0.73;;;;;;;;;;5027599;28;20065;-70
2021/07/29 09:56:11;;;;;;;0.70;0.70;;;;;;;;;;5036215;28;20027;-71
2021/07/29 09:58:37;;;;;;;0.77;0.77;;;;;;;;;;5047243;28;20043;-72
2021/07/29 10:01:04;;;;;;;0.85;0.80;;;;;;;;;;5039998;28;20022;-70
2021/07/29 10:03:34;;;;;;;0.80;0.80;;;;;;;;;;5025707;28;20539;-73
2021/07/29 10:06:05;;;;;;;0.82;0.82;;;;;;;;;;5025072;28;20067;-66
2021/07/29 10:08:31;;;;;;;0.82;0.82;;;;;;;;;;5035271;28;20064;-68
2021/07/29 10:10:59;;;;;;;0.70;0.70;;;;;;;;;;5030574;28;20032;-68
2021/07/29 10:13:35;;;;;;;0.88;0.88;;;;;;;;;;5038500;28;20120;-67
2021/07/29 10:16:03;;;;;;;1.35;1.25;;;;;;;;;;5046442;28;20021;-65
2021/07/29 10:18:49;;;;;;;1.20;1.05;;;;;;;;;;5035245;28;20476;-64
2021/07/29 10:21:26;;;;;;;1.20;1.10;;;;;;;;;;5036132;28;20048;-65
2021/07/29 10:23:52;;;;;;;1.10;1.00;;;;;;;;;;5029589;28;20032;-65
2021/07/29 10:26:19;;;;;;;1.13;1.02;;;;;;;;;;5034445;28;20037;-65
2021/07/29 10:28:45;;;;;;;1.10;0.88;;;;;;;;;;5032313;28;20032;-77
2021/07/29 10:31:12;;;;;;;0.80;0.80;;;;;;;;;;5032619;28;20036;-76
2021/07/29 10:33:40;;;;;;;1.20;1.10;;;;;;;;;;5029816;28;20041;-79
2021/07/29 10:36:06;;;;;;;1.88;0.98;;;;;;;;;;5033804;28;20040;-78
2021/07/29 10:38:41;;;;;;;0.93;0.82;;;;;;;;;;5026290;28;20104;-73
2021/07/29 10:41:10;;;;;;;1.08;0.98;;;;;;;;;;5025580;28;20041;-68
2021/07/29 10:43:39;;;;;;;1.23;1.00;;;;;;;;;;5035071;28;20055;-69
2021/07/29 10:46:05;;;;;;;1.15;0.90;;;;;;;;;;5031064;28;20030;-72
2021/07/29 10:48:40;;;;;;;1.25;0.90;;;;;;;;;;5026935;28;20452;-72
2021/07/29 10:51:19;;;;;;;0.73;0.73;;;;;;;;;;5026281;28;20104;-70
2021/07/29 10:53:48;;;;;;;0.93;0.93;;;;;;;;;;5033540;28;20037;-72
2021/07/29 10:56:24;;;;;;;0.90;0.90;;;;;;;;;;5026461;28;20510;-75
2021/07/29 10:58:54;;;;;;;1.02;0.90;;;;;;;;;;5034064;28;20109;-75
2021/07/29 11:01:21;;;;;;;0.93;0.90;;;;;;;;;;5047068;28;20107;-74
2021/07/29 11:03:51;;;;;;;1.08;0.98;;;;;;;;;;5046314;28;20037;-77
2021/07/29 11:06:24;;;;;;;1.15;1.05;;;;;;;;;;5046625;28;20040;-79
2021/07/29 11:08:51;;;;;;;1.05;0.80;;;;;;;;;;5040446;28;20025;-73
2021/07/29 11:11:18;;;;;;;0.70;0.70;;;;;;;;;;5038827;28;20407;-78
2021/07/29 11:13:47;;;;;;;1.10;1.00;;;;;;;;;;5041991;28;20029;-80
2021/07/29 11:16:15;;;;;;;0.85;0.82;;;;;;;;;;5043658;28;20399;-80
2021/07/29 11:18:41;;;;;;;0.95;0.82;;;;;;;;;;5027524;28;20029;-76
2021/07/29 11:21:14;;;;;;;0.70;0.70;;;;;;;;;;5035232;28;20061;-79
2021/07/29 11:23:40;;;;;;;0.70;0.70;;;;;;;;;;5028805;28;20418;-74
2021/07/29 11:26:06;;;;;;;1.15;0.90;;;;;;;;;;5036205;28;20026;-71
2021/07/29 11:28:34;;;;;;;1.40;1.30;;;;;;;;;;5035234;28;20036;-75
2021/07/29 11:31:00;;;;;;;2.00;1.52;;;;;;;;;;5033463;28;20507;-71
2021/07/29 11:33:27;;;;;;;1.80;1.70;;;;;;;;;;5048821;28;20090;-79
2021/07/29 11:35:54;;;;;;;1.92;1.73;;;;;;;;;;5036870;28;20034;-71
2021/07/29 11:38:21;;;;;;;1.40;1.30;;;;;;;;;;5038896;28;20033;-73
2021/07/29 11:40:47;;;;;;;2.05;1.60;;;;;;;;;;5029880;28;20034;-71
2021/07/29 11:43:23;;;;;;;1.88;1.40;;;;;;;;;;5038564;28;20124;-68
2021/07/29 11:45:49;;;;;;;1.70;1.60;;;;;;;;;;5045834;28;20056;-70
2021/07/29 11:48:19;;;;;;;1.70;1.58;;;;;;;;;;5047141;28;20025;-70
2021/07/29 11:50:46;;;;;;;1.65;1.55;;;;;;;;;;5041419;28;20048;-68
2021/07/29 11:53:12;;;;;;;1.42;1.33;;;;;;;;;;5026334;28;20029;-70
2021/07/29 11:55:39;;;;;;;1.45;1.35;;;;;;;;;;5031331;28;21156;-73
2021/07/29 11:58:11;;;;;;;1.20;1.10;;;;;;;;;;5034329;28;20041;-74
2021/07/29 12:00:39;;;;;;;0.82;0.82;;;;;;;;;;5027589;28;20041;-74
2021/07/29 12:03:05;;;;;;;1.08;0.98;;;;;;;;;;5029128;28;20033;-74
2021/07/29 12:05:33;;;;;;;1.30;1.20;;;;;;;;;;5043167;28;20122;-75
2021/07/29 12:07:59;;;;;;;1.33;1.23;;;;;;;;;;5034344;28;20521;-73
2021/07/29 12:10:26;;;;;;;1.05;1.02;;;;;;;;;;5032454;28;20021;-68
2021/07/29 12:12:52;;;;;;;1.30;1.20;;;;;;;;;;5046228;28;20557;-71
2021/07/29 12:15:18;;;;;;;1.05;1.00;;;;;;;;;;5026463;28;20027;-71
2021/07/29 12:17:44;;;;;;;1.35;1.25;;;;;;;;;;5032947;28;20037;-71
2021/07/29 12:20:13;;;;;;;1.20;1.10;;;;;;;;;;5027684;28;20060;-70
2021/07/29 12:22:42;;;;;;;2.47;1.70;;;;;;;;;;5034091;28;20069;-69
2021/07/29 12:25:11;;;;;;;1.40;1.30;;;;;;;;;;5041521;28;20117;-68
2021/07/29 12:27:44;;;;;;;1.90;1.80;;;;;;;;;;5041033;28;20403;-70
2021/07/29 12:30:30;;;;;;;1.80;1.50;;;;;;;;;;5042997;28;21574;-69
2021/07/29 12:33:16;;;;;;;1.52;1.42;;;;;;;;;;5037251;28;20049;-68
2021/07/29 12:35:43;;;;;;;1.70;1.60;;;;;;;;;;5031522;28;20018;-67
2021/07/29 12:38:10;;;;;;;1.30;1.20;;;;;;;;;;5045863;28;20032;-69
2021/07/29 12:40:37;;;;;;;3.92;1.60;;;;;;;;;;5049415;28;20389;-69
2021/07/29 12:43:19;;;;;;;1.63;1.52;;;;;;;;;;5034204;28;20464;-70
2021/07/29 12:45:53;;;;;;;1.77;1.65;;;;;;;;;;5030264;28;20036;-66
2021/07/29 12:48:20;;;;;;;1.90;1.70;;;;;;;;;;5029537;28;20316;-68
2021/07/29 12:50:47;;;;;;;1.55;1.45;;;;;;;;;;5030357;28;20033;-67
2021/07/29 12:53:16;;;;;;;1.88;1.70;;;;;;;;;;5029066;28;20068;-68
2021/07/29 12:55:43;;;;;;;1.55;1.45;;;;;;;;;;5048598;28;20025;-69
2021/07/29 12:58:10;;;;;;;1.75;1.55;;;;;;;;;;5048296;28;20471;-68
2021/07/29 13:00:42;;;;;;;1.55;1.45;;;;;;;;;;5049519;28;20017;-67
2021/07/29 13:03:37;;;;;;;1.40;1.30;;;;;;;;;;5057561;28;20048;-69
2021/07/29 13:06:03;;;;;;;;;;;;;;;;;;5055667;28;20048;-68
2021/07/29 13:08:32;;;;;;;1.40;1.30;;;;;;;;;;5036037;28;19931;-68
2021/07/29 13:10:59;;;;;;;1.33;1.23;;;;;;;;;;5044449;28;20047;-69
2021/07/29 13:13:31;;;;;;;1.30;1.20;;;;;;;;;;5048445;28;20376;-69
2021/07/29 13:15:57;;;;;;;1.05;1.02;;;;;;;;;;5050089;28;20028;-68
2021/07/29 13:18:23;;;;;;;1.70;1.60;;;;;;;;;;5040783;28;20041;-68
2021/07/29 13:20:50;;;;;;;1.58;1.48;;;;;;;;;;5039104;28;20045;-68
2021/07/29 13:23:16;;;;;;;1.50;1.40;;;;;;;;;;5035560;28;20043;-68
2021/07/29 13:25:44;;;;;;;1.67;1.58;;;;;;;;;;5046137;28;20021;-69
2021/07/29 13:28:10;;;;;;;1.90;1.70;;;;;;;;;;5047745;28;20029;-69
2021/07/29 13:30:37;;;;;;;1.75;1.65;;;;;;;;;;5049442;28;20606;-69
2021/07/29 13:33:03;;;;;;;1.80;1.70;;;;;;;;;;5032386;28;20515;-67
2021/07/29 13:35:29;;;;;;;1.70;1.60;;;;;;;;;;5040838;28;20371;-67
2021/07/29 13:37:57;;;;;;;1.35;1.25;;;;;;;;;;5047574;28;20514;-68
2021/07/29 13:40:24;;;;;;;1.70;1.60;;;;;;;;;;5039241;28;20033;-73
2021/07/29 13:42:51;;;;;;;1.23;1.13;;;;;;;;;;5049339;28;20167;-75
2021/07/29 13:45:20;;;;;;;1.95;1.75;;;;;;;;;;5054637;28;20036;-77
2021/07/29 13:47:50;;;;;;;1.80;1.70;;;;;;;;;;5049104;28;20068;-77
2021/07/29 13:50:19;;;;;;;2.00;1.80;;;;;;;;;;5048770;28;20104;-74
2021/07/29 13:52:49;;;;;;;1.77;1.67;;;;;;;;;;5049483;28;20032;-76
2021/07/29 13:55:16;;;;;;;2.20;2.00;;;;;;;;;;5035368;28;20021;-77
2021/07/29 13:57:43;;;;;;;1.60;1.50;;;;;;;;;;5040848;28;20534;-80
2021/07/29 14:00:10;;;;;;;1.60;1.50;;;;;;;;;;5034088;28;20100;-76
2021/07/29 14:02:36;;;;;;;1.60;1.50;;;;;;;;;;5059141;28;20056;-73
2021/07/29 14:05:03;;;;;;;1.60;1.50;;;;;;;;;;5060349;28;20037;-72
2021/07/29 14:07:31;;;;;;;1.70;1.60;;;;;;;;;;5044093;28;20146;-72
2021/07/29 14:09:57;;;;;;;1.67;1.58;;;;;;;;;;5036377;28;20033;-71
2021/07/29 14:12:27;;;;;;;1.60;1.50;;;;;;;;;;5033183;28;20505;-71
2021/07/29 14:15:00;;;;;;;1.60;1.50;;;;;;;;;;5029689;28;20034;-78
2021/07/29 14:25:22;;;;;;;1.45;1.35;;;;;;;;;;5038155;28;20094;-72
2021/07/29 14:27:48;;;;;;;1.60;1.50;;;;;;;;;;5041690;28;20033;-69
2021/07/29 14:30:14;;;;;;;1.70;1.60;;;;;;;;;;5034116;28;20083;-70
2021/07/29 14:32:41;;;;;;;1.63;1.52;;;;;;;;;;5028973;28;20480;-67
2021/07/29 14:35:08;;;;;;;1.83;1.70;;;;;;;;;;5043927;28;20085;-70
2021/07/29 14:37:34;;;;;;;1.85;1.67;;;;;;;;;;5044190;28;20031;-69
2021/07/29 14:40:00;;;;;;;1.52;1.42;;;;;;;;;;5027663;28;20389;-70
2021/07/29 14:42:26;;;;;;;1.77;1.67;;;;;;;;;;5027340;28;20029;-76
2021/07/29 14:44:58;;;;;;;1.83;1.67;;;;;;;;;;5030799;28;20840;-72
2021/07/29 14:50:09;;;;;;;2.00;1.52;;;;;;;;;;5034827;28;20044;-72
2021/07/29 14:52:35;;;;;;;1.65;1.55;;;;;;;;;;5047234;28;20471;-72
2021/07/29 14:57:53;;;;;;;1.52;1.42;;;;;;;;;;5045886;28;20079;-72
2021/07/29 16:08:58;;;;;;;2.00;1.80;;;;;;;;;;5048732;28;20485;-72